BSB weather

Presidente Juscelino Kubistschek International Airport
Brasília, Distrito Federal, Brazil

Public forecast

Using degrees Celsius for public forecast. Weather courtesy of forecast.io.

Current aviation weather report (METAR) for Presidente Juscelino Kubistschek International Airport

Retrieved 2020/07/13 07:00 UTC (31 minutes ago):

SBBR 130700Z VRB01KT CAVOK 14/11 Q1021

Aviation forecast (TAF) for Presidente Juscelino Kubistschek International Airport

Forecast is more than 6 hours old.

Retrieved 2020-07-13 00:00 UTC (8 hours ago):

TAF SBBR 122100Z 1300/1324 09005KT CAVOK TN13/1309Z TX28/1318Z BECMG 1302/1304 01005KT BECMG 1311/1313 06008KT BECMG 1321/1323 09005KT RMK PDL